sensor_id;sensor_type;location;lat;lon;timestamp;pressure;altitude;pressure_sealevel;temperature;humidity
37020;BME280;22932;52.442;16.896;2022-12-07T00:01:47;99962.40;;;2.01;100.00
37020;BME280;22932;52.442;16.896;2022-12-07T00:04:18;99958.95;;;2.02;100.00
37020;BME280;22932;52.442;16.896;2022-12-07T00:06:52;99965.85;;;2.02;100.00
37020;BME280;22932;52.442;16.896;2022-12-07T00:09:21;99961.35;;;2.03;100.00
37020;BME280;22932;52.442;16.896;2022-12-07T00:11:52;99960.35;;;2.05;100.00
37020;BME280;22932;52.442;16.896;2022-12-07T00:14:22;99960.92;;;2.07;100.00
37020;BME280;22932;52.442;16.896;2022-12-07T00:16:52;99955.55;;;2.08;100.00
37020;BME280;22932;52.442;16.896;2022-12-07T00:19:21;99960.21;;;2.07;100.00
37020;BME280;22932;52.442;16.896;2022-12-07T00:21:51;99959.75;;;2.06;100.00
37020;BME280;22932;52.442;16.896;2022-12-07T00:24:20;99955.46;;;2.07;100.00
37020;BME280;22932;52.442;16.896;2022-12-07T00:26:50;99954.20;;;2.07;100.00
37020;BME280;22932;52.442;16.896;2022-12-07T00:29:20;99956.02;;;2.06;100.00
37020;BME280;22932;52.442;16.896;2022-12-07T00:31:51;99950.05;;;2.05;100.00
37020;BME280;22932;52.442;16.896;2022-12-07T00:34:21;99951.50;;;2.04;100.00
37020;BME280;22932;52.442;16.896;2022-12-07T00:36:51;99948.38;;;2.04;100.00
37020;BME280;22932;52.442;16.896;2022-12-07T00:39:21;99944.57;;;2.02;100.00
37020;BME280;22932;52.442;16.896;2022-12-07T00:41:50;99943.34;;;2.02;100.00
37020;BME280;22932;52.442;16.896;2022-12-07T00:44:20;99944.60;;;2.01;100.00
37020;BME280;22932;52.442;16.896;2022-12-07T00:46:49;99943.86;;;2.02;100.00
37020;BME280;22932;52.442;16.896;2022-12-07T00:49:19;99939.79;;;2.02;100.00
37020;BME280;22932;52.442;16.896;2022-12-07T00:51:50;99942.64;;;2.04;100.00
37020;BME280;22932;52.442;16.896;2022-12-07T00:54:20;99942.89;;;2.06;100.00
37020;BME280;22932;52.442;16.896;2022-12-07T00:56:49;99942.94;;;2.08;100.00
37020;BME280;22932;52.442;16.896;2022-12-07T00:59:19;99943.71;;;2.10;100.00
37020;BME280;22932;52.442;16.896;2022-12-07T01:01:48;99945.69;;;2.12;100.00
37020;BME280;22932;52.442;16.896;2022-12-07T01:04:17;99940.47;;;2.14;100.00
37020;BME280;22932;52.442;16.896;2022-12-07T01:06:47;99935.08;;;2.14;100.00
37020;BME280;22932;52.442;16.896;2022-12-07T01:09:16;99939.14;;;2.15;100.00
37020;BME280;22932;52.442;16.896;2022-12-07T01:11:46;99935.58;;;2.15;100.00
37020;BME280;22932;52.442;16.896;2022-12-07T01:14:15;99935.03;;;2.15;100.00
37020;BME280;22932;52.442;16.896;2022-12-07T01:16:45;99930.92;;;2.16;100.00
37020;BME280;22932;52.442;16.896;2022-12-07T01:19:14;99931.27;;;2.16;100.00
37020;BME280;22932;52.442;16.896;2022-12-07T01:21:44;99928.52;;;2.17;100.00
37020;BME280;22932;52.442;16.896;2022-12-07T01:24:13;99932.60;;;2.17;100.00
37020;BME280;22932;52.442;16.896;2022-12-07T01:26:43;99933.35;;;2.19;100.00
37020;BME280;22932;52.442;16.896;2022-12-07T01:29:12;99929.38;;;2.20;100.00
37020;BME280;22932;52.442;16.896;2022-12-07T01:31:42;99927.21;;;2.21;100.00
37020;BME280;22932;52.442;16.896;2022-12-07T01:34:11;99928.12;;;2.20;100.00
37020;BME280;22932;52.442;16.896;2022-12-07T01:36:41;99923.93;;;2.22;100.00
37020;BME280;22932;52.442;16.896;2022-12-07T01:39:11;99925.26;;;2.23;100.00
37020;BME280;22932;52.442;16.896;2022-12-07T01:41:41;99927.14;;;2.24;100.00
37020;BME280;22932;52.442;16.896;2022-12-07T01:44:23;99931.95;;;2.24;100.00
37020;BME280;22932;52.442;16.896;2022-12-07T01:46:54;99930.92;;;2.26;100.00
37020;BME280;22932;52.442;16.896;2022-12-07T01:49:28;99931.26;;;2.27;100.00
37020;BME280;22932;52.442;16.896;2022-12-07T01:52:03;99926.42;;;2.27;100.00
37020;BME280;22932;52.442;16.896;2022-12-07T01:54:37;99921.02;;;2.28;100.00
37020;BME280;22932;52.442;16.896;2022-12-07T01:57:07;99916.20;;;2.29;100.00
37020;BME280;22932;52.442;16.896;2022-12-07T01:59:38;99914.73;;;2.29;100.00
37020;BME280;22932;52.442;16.896;2022-12-07T02:02:11;99915.23;;;2.30;100.00
37020;BME280;22932;52.442;16.896;2022-12-07T02:04:44;99911.05;;;2.29;100.00
37020;BME280;22932;52.442;16.896;2022-12-07T02:07:13;99908.19;;;2.29;100.00
37020;BME280;22932;52.442;16.896;2022-12-07T02:09:43;99908.20;;;2.28;100.00
37020;BME280;22932;52.442;16.896;2022-12-07T02:12:13;99910.45;;;2.30;100.00
37020;BME280;22932;52.442;16.896;2022-12-07T02:14:43;99909.05;;;2.29;100.00
37020;BME280;22932;52.442;16.896;2022-12-07T02:17:17;99908.36;;;2.29;100.00
37020;BME280;22932;52.442;16.896;2022-12-07T02:20:03;99902.48;;;2.29;100.00
37020;BME280;22932;52.442;16.896;2022-12-07T02:25:57;99898.72;;;2.33;100.00
37020;BME280;22932;52.442;16.896;2022-12-07T02:28:35;99891.73;;;2.34;100.00
37020;BME280;22932;52.442;16.896;2022-12-07T02:31:08;99889.13;;;2.33;100.00
37020;BME280;22932;52.442;16.896;2022-12-07T02:33:43;99889.10;;;2.34;100.00
37020;BME280;22932;52.442;16.896;2022-12-07T02:36:20;99887.34;;;2.33;100.00
37020;BME280;22932;52.442;16.896;2022-12-07T02:38:58;99884.95;;;2.32;100.00
37020;BME280;22932;52.442;16.896;2022-12-07T02:41:32;99883.92;;;2.31;100.00
37020;BME280;22932;52.442;16.896;2022-12-07T02:44:06;99878.40;;;2.31;100.00
37020;BME280;22932;52.442;16.896;2022-12-07T02:46:40;99879.89;;;2.33;100.00
37020;BME280;22932;52.442;16.896;2022-12-07T02:49:12;99877.33;;;2.34;100.00
37020;BME280;22932;52.442;16.896;2022-12-07T02:51:43;99877.49;;;2.34;100.00
37020;BME280;22932;52.442;16.896;2022-12-07T02:54:15;99876.63;;;2.34;100.00
37020;BME280;22932;52.442;16.896;2022-12-07T02:56:48;99874.59;;;2.35;100.00
37020;BME280;22932;52.442;16.896;2022-12-07T02:59:28;99874.23;;;2.35;100.00
37020;BME280;22932;52.442;16.896;2022-12-07T03:02:13;99877.02;;;2.36;100.00
37020;BME280;22932;52.442;16.896;2022-12-07T03:04:56;99878.09;;;2.36;100.00
37020;BME280;22932;52.442;16.896;2022-12-07T03:07:36;99882.16;;;2.36;100.00
37020;BME280;22932;52.442;16.896;2022-12-07T03:10:14;99887.17;;;2.35;100.00
37020;BME280;22932;52.442;16.896;2022-12-07T03:12:53;99885.90;;;2.36;100.00
37020;BME280;22932;52.442;16.896;2022-12-07T03:15:29;99886.53;;;2.34;100.00
37020;BME280;22932;52.442;16.896;2022-12-07T03:18:02;99888.69;;;2.34;100.00
37020;BME280;22932;52.442;16.896;2022-12-07T12:55:16;99531.20;;;1.75;100.00
37020;BME280;22932;52.442;16.896;2022-12-07T12:57:54;99527.98;;;1.76;100.00
37020;BME280;22932;52.442;16.896;2022-12-07T13:00:43;99526.77;;;1.76;100.00
37020;BME280;22932;52.442;16.896;2022-12-07T13:03:26;99532.09;;;1.75;100.00
37020;BME280;22932;52.442;16.896;2022-12-07T13:06:19;99530.59;;;1.74;100.00
37020;BME280;22932;52.442;16.896;2022-12-07T13:08:49;99538.66;;;1.73;100.00
37020;BME280;22932;52.442;16.896;2022-12-07T13:11:25;99541.94;;;1.72;100.00
37020;BME280;22932;52.442;16.896;2022-12-07T13:17:13;99550.03;;;1.68;100.00
37020;BME280;22932;52.442;16.896;2022-12-07T13:20:04;99551.31;;;1.67;100.00
37020;BME280;22932;52.442;16.896;2022-12-07T13:22:55;99552.97;;;1.66;100.00
37020;BME280;22932;52.442;16.896;2022-12-07T13:25:40;99555.90;;;1.65;100.00
37020;BME280;22932;52.442;16.896;2022-12-07T13:28:16;99556.41;;;1.63;100.00
37020;BME280;22932;52.442;16.896;2022-12-07T13:30:54;99560.84;;;1.60;100.00
37020;BME280;22932;52.442;16.896;2022-12-07T13:33:29;99562.49;;;1.57;100.00
37020;BME280;22932;52.442;16.896;2022-12-07T13:35:59;99564.34;;;1.53;100.00
37020;BME280;22932;52.442;16.896;2022-12-07T13:38:32;99565.80;;;1.50;100.00
37020;BME280;22932;52.442;16.896;2022-12-07T13:41:13;99571.38;;;1.49;100.00
37020;BME280;22932;52.442;16.896;2022-12-07T13:43:50;99571.73;;;1.49;100.00
37020;BME280;22932;52.442;16.896;2022-12-07T13:46:24;99569.04;;;1.49;100.00
37020;BME280;22932;52.442;16.896;2022-12-07T13:48:54;99575.15;;;1.51;100.00
37020;BME280;22932;52.442;16.896;2022-12-07T13:51:26;99579.95;;;1.50;100.00
37020;BME280;22932;52.442;16.896;2022-12-07T13:54:08;99581.50;;;1.51;100.00
37020;BME280;22932;52.442;16.896;2022-12-07T13:56:39;99584.06;;;1.50;99.94
37020;BME280;22932;52.442;16.896;2022-12-07T13:59:14;99589.38;;;1.47;99.89
37020;BME280;22932;52.442;16.896;2022-12-07T14:01:47;99594.05;;;1.47;100.00
37020;BME280;22932;52.442;16.896;2022-12-07T14:04:28;99593.85;;;1.47;100.00
37020;BME280;22932;52.442;16.896;2022-12-07T14:06:59;99595.57;;;1.48;100.00
37020;BME280;22932;52.442;16.896;2022-12-07T14:09:30;99598.64;;;1.47;100.00
37020;BME280;22932;52.442;16.896;2022-12-07T14:11:59;99596.27;;;1.48;99.99
37020;BME280;22932;52.442;16.896;2022-12-07T14:14:48;99601.94;;;1.48;100.00
37020;BME280;22932;52.442;16.896;2022-12-07T14:17:19;99603.67;;;1.49;100.00
37020;BME280;22932;52.442;16.896;2022-12-07T14:19:52;99602.23;;;1.49;100.00
37020;BME280;22932;52.442;16.896;2022-12-07T14:22:34;99607.00;;;1.49;100.00
37020;BME280;22932;52.442;16.896;2022-12-07T14:25:13;99604.85;;;1.49;100.00
37020;BME280;22932;52.442;16.896;2022-12-07T14:27:49;99606.83;;;1.49;99.99
37020;BME280;22932;52.442;16.896;2022-12-07T14:30:19;99609.73;;;1.48;99.99
37020;BME280;22932;52.442;16.896;2022-12-07T14:32:53;99611.91;;;1.47;100.00
37020;BME280;22932;52.442;16.896;2022-12-07T14:35:23;99607.26;;;1.48;99.99
37020;BME280;22932;52.442;16.896;2022-12-07T14:37:53;99610.23;;;1.46;99.94
37020;BME280;22932;52.442;16.896;2022-12-07T14:40:24;99611.61;;;1.47;99.94
37020;BME280;22932;52.442;16.896;2022-12-07T14:42:57;99614.35;;;1.48;99.94
37020;BME280;22932;52.442;16.896;2022-12-07T14:45:29;99611.02;;;1.47;99.67
37020;BME280;22932;52.442;16.896;2022-12-07T14:47:58;99618.44;;;1.45;99.44
37020;BME280;22932;52.442;16.896;2022-12-07T14:50:28;99623.06;;;1.45;99.57
37020;BME280;22932;52.442;16.896;2022-12-07T14:53:01;99626.45;;;1.45;99.59
37020;BME280;22932;52.442;16.896;2022-12-07T14:55:35;99629.71;;;1.44;99.45
37020;BME280;22932;52.442;16.896;2022-12-07T14:58:04;99625.73;;;1.45;99.51
37020;BME280;22932;52.442;16.896;2022-12-07T15:00:34;99626.75;;;1.46;99.80
37020;BME280;22932;52.442;16.896;2022-12-07T15:03:03;99627.28;;;1.46;99.61
37020;BME280;22932;52.442;16.896;2022-12-07T15:05:34;99619.02;;;1.44;99.37
37020;BME280;22932;52.442;16.896;2022-12-07T15:08:04;99624.87;;;1.42;99.22
37020;BME280;22932;52.442;16.896;2022-12-07T15:10:34;99625.15;;;1.48;99.93
37020;BME280;22932;52.442;16.896;2022-12-07T15:13:07;99629.38;;;1.51;99.52
37020;BME280;22932;52.442;16.896;2022-12-07T15:15:54;99636.83;;;1.49;98.77
37020;BME280;22932;52.442;16.896;2022-12-07T15:18:24;99639.23;;;1.45;98.19
37020;BME280;22932;52.442;16.896;2022-12-07T15:20:54;99641.31;;;1.37;97.75
37020;BME280;22932;52.442;16.896;2022-12-07T15:23:23;99636.73;;;1.31;97.77
37020;BME280;22932;52.442;16.896;2022-12-07T15:25:53;99641.06;;;1.25;97.59
37020;BME280;22932;52.442;16.896;2022-12-07T15:28:22;99645.82;;;1.20;97.85
37020;BME280;22932;52.442;16.896;2022-12-07T15:30:52;99651.83;;;1.26;99.41
37020;BME280;22932;52.442;16.896;2022-12-07T15:33:21;99653.79;;;1.31;99.12
37020;BME280;22932;52.442;16.896;2022-12-07T15:35:51;99653.16;;;1.27;98.31
37020;BME280;22932;52.442;16.896;2022-12-07T15:38:20;99654.24;;;1.24;97.99
37020;BME280;22932;52.442;16.896;2022-12-07T15:40:52;99653.14;;;1.19;97.63
37020;BME280;22932;52.442;16.896;2022-12-07T15:43:21;99649.21;;;1.14;97.45
37020;BME280;22932;52.442;16.896;2022-12-07T15:46:08;99652.29;;;1.10;97.33
37020;BME280;22932;52.442;16.896;2022-12-07T15:48:37;99652.14;;;1.07;97.37
37020;BME280;22932;52.442;16.896;2022-12-07T15:51:09;99651.19;;;1.03;97.37
37020;BME280;22932;52.442;16.896;2022-12-07T15:53:39;99652.52;;;0.98;97.27
37020;BME280;22932;52.442;16.896;2022-12-07T15:56:09;99650.48;;;0.94;97.34
37020;BME280;22932;52.442;16.896;2022-12-07T15:58:39;99649.45;;;0.94;97.54
37020;BME280;22932;52.442;16.896;2022-12-07T16:01:13;99650.95;;;0.93;97.78
37020;BME280;22932;52.442;16.896;2022-12-07T16:03:43;99651.80;;;0.93;97.86
37020;BME280;22932;52.442;16.896;2022-12-07T16:06:17;99655.09;;;0.91;97.77
37020;BME280;22932;52.442;16.896;2022-12-07T16:08:47;99654.98;;;0.90;97.81
37020;BME280;22932;52.442;16.896;2022-12-07T16:11:16;99656.34;;;0.88;97.71
37020;BME280;22932;52.442;16.896;2022-12-07T16:13:46;99656.19;;;0.88;97.82
37020;BME280;22932;52.442;16.896;2022-12-07T16:16:17;99654.29;;;0.87;97.76
37020;BME280;22932;52.442;16.896;2022-12-07T16:18:48;99656.20;;;0.85;97.79
37020;BME280;22932;52.442;16.896;2022-12-07T16:21:19;99658.79;;;0.83;97.83
37020;BME280;22932;52.442;16.896;2022-12-07T16:23:47;99654.50;;;0.82;97.66
37020;BME280;22932;52.442;16.896;2022-12-07T16:26:18;99654.23;;;0.77;97.54
37020;BME280;22932;52.442;16.896;2022-12-07T16:28:50;99655.80;;;0.75;97.41
37020;BME280;22932;52.442;16.896;2022-12-07T16:31:22;99659.26;;;0.73;97.76
37020;BME280;22932;52.442;16.896;2022-12-07T16:33:54;99651.48;;;0.73;97.67
37020;BME280;22932;52.442;16.896;2022-12-07T16:36:24;99651.36;;;0.72;97.75
37020;BME280;22932;52.442;16.896;2022-12-07T16:38:55;99655.20;;;0.70;97.77
37020;BME280;22932;52.442;16.896;2022-12-07T16:41:24;99658.02;;;0.67;97.54
37020;BME280;22932;52.442;16.896;2022-12-07T16:43:54;99657.58;;;0.66;97.43
37020;BME280;22932;52.442;16.896;2022-12-07T16:46:23;99658.01;;;0.62;97.25
37020;BME280;22932;52.442;16.896;2022-12-07T16:48:53;99654.09;;;0.59;97.46
37020;BME280;22932;52.442;16.896;2022-12-07T16:51:22;99650.91;;;0.56;97.37
37020;BME280;22932;52.442;16.896;2022-12-07T16:53:53;99654.08;;;0.54;97.34
37020;BME280;22932;52.442;16.896;2022-12-07T16:56:23;99649.57;;;0.53;97.42
37020;BME280;22932;52.442;16.896;2022-12-07T16:58:54;99647.59;;;0.53;97.54
37020;BME280;22932;52.442;16.896;2022-12-07T17:01:24;99647.25;;;0.53;97.53
37020;BME280;22932;52.442;16.896;2022-12-07T17:03:58;99646.08;;;0.52;97.50
37020;BME280;22932;52.442;16.896;2022-12-07T17:06:29;99647.76;;;0.53;97.71
37020;BME280;22932;52.442;16.896;2022-12-07T17:08:57;99646.42;;;0.55;97.85
37020;BME280;22932;52.442;16.896;2022-12-07T17:11:29;99647.46;;;0.55;97.76
37020;BME280;22932;52.442;16.896;2022-12-07T17:14:00;99644.20;;;0.56;97.92
37020;BME280;22932;52.442;16.896;2022-12-07T17:16:46;99646.96;;;0.57;97.91
37020;BME280;22932;52.442;16.896;2022-12-07T17:19:17;99648.75;;;0.57;97.76
37020;BME280;22932;52.442;16.896;2022-12-07T17:21:46;99639.55;;;0.57;97.66
37020;BME280;22932;52.442;16.896;2022-12-07T17:24:18;99635.20;;;0.56;97.63
37020;BME280;22932;52.442;16.896;2022-12-07T17:26:47;99632.38;;;0.56;97.75
37020;BME280;22932;52.442;16.896;2022-12-07T17:29:18;99634.09;;;0.56;97.73
37020;BME280;22932;52.442;16.896;2022-12-07T17:31:48;99639.09;;;0.56;97.58
37020;BME280;22932;52.442;16.896;2022-12-07T17:34:18;99642.23;;;0.56;97.70
37020;BME280;22932;52.442;16.896;2022-12-07T17:36:48;99639.87;;;0.57;97.60
37020;BME280;22932;52.442;16.896;2022-12-07T17:39:18;99639.27;;;0.59;97.69
37020;BME280;22932;52.442;16.896;2022-12-07T17:41:48;99639.23;;;0.59;97.68
37020;BME280;22932;52.442;16.896;2022-12-07T17:44:35;99643.81;;;0.57;97.50
37020;BME280;22932;52.442;16.896;2022-12-07T17:47:04;99645.35;;;0.55;97.34
37020;BME280;22932;52.442;16.896;2022-12-07T17:49:35;99644.23;;;0.53;97.33
37020;BME280;22932;52.442;16.896;2022-12-07T17:52:05;99645.68;;;0.52;97.43
37020;BME280;22932;52.442;16.896;2022-12-07T17:54:52;99642.17;;;0.52;97.38
37020;BME280;22932;52.442;16.896;2022-12-07T17:57:21;99646.79;;;0.51;97.29
37020;BME280;22932;52.442;16.896;2022-12-07T17:59:51;99645.44;;;0.51;97.35
37020;BME280;22932;52.442;16.896;2022-12-07T18:02:22;99649.37;;;0.50;97.49
37020;BME280;22932;52.442;16.896;2022-12-07T18:04:51;99646.84;;;0.51;97.51
37020;BME280;22932;52.442;16.896;2022-12-07T18:07:21;99648.25;;;0.51;97.45
37020;BME280;22932;52.442;16.896;2022-12-07T18:09:50;99647.14;;;0.52;97.64
37020;BME280;22932;52.442;16.896;2022-12-07T18:12:20;99645.04;;;0.51;97.54
37020;BME280;22932;52.442;16.896;2022-12-07T18:14:49;99644.52;;;0.51;97.54
37020;BME280;22932;52.442;16.896;2022-12-07T18:17:21;99643.98;;;0.51;97.39
37020;BME280;22932;52.442;16.896;2022-12-07T18:19:50;99643.02;;;0.50;97.28
37020;BME280;22932;52.442;16.896;2022-12-07T18:22:20;99645.61;;;0.48;97.26
37020;BME280;22932;52.442;16.896;2022-12-07T18:24:49;99640.19;;;0.47;97.35
37020;BME280;22932;52.442;16.896;2022-12-07T18:27:19;99641.83;;;0.46;97.33
37020;BME280;22932;52.442;16.896;2022-12-07T18:29:48;99640.83;;;0.44;97.40
37020;BME280;22932;52.442;16.896;2022-12-07T18:32:18;99642.08;;;0.44;97.26
37020;BME280;22932;52.442;16.896;2022-12-07T18:34:47;99641.98;;;0.43;97.30
37020;BME280;22932;52.442;16.896;2022-12-07T18:37:17;99642.51;;;0.43;97.34
37020;BME280;22932;52.442;16.896;2022-12-07T18:39:46;99646.45;;;0.42;97.38
37020;BME280;22932;52.442;16.896;2022-12-07T18:42:17;99642.39;;;0.42;97.40
